sensor_id;sensor_type;location;lat;lon;timestamp;temperature;humidity
34768;DHT22;21755;43.608;1.236;2023-01-26T00:02:14;1.40;99.90
34768;DHT22;21755;43.608;1.236;2023-01-26T00:04:40;1.40;99.90
34768;DHT22;21755;43.608;1.236;2023-01-26T00:07:06;1.40;99.90
34768;DHT22;21755;43.608;1.236;2023-01-26T00:09:32;1.40;99.90
34768;DHT22;21755;43.608;1.236;2023-01-26T00:11:57;1.40;99.90
34768;DHT22;21755;43.608;1.236;2023-01-26T00:14:23;1.50;99.90
34768;DHT22;21755;43.608;1.236;2023-01-26T00:16:49;1.40;99.90
34768;DHT22;21755;43.608;1.236;2023-01-26T00:19:15;1.50;99.90
34768;DHT22;21755;43.608;1.236;2023-01-26T00:21:41;1.40;99.90
34768;DHT22;21755;43.608;1.236;2023-01-26T00:24:07;1.40;99.90
34768;DHT22;21755;43.608;1.236;2023-01-26T00:26:32;1.40;99.90
34768;DHT22;21755;43.608;1.236;2023-01-26T00:28:59;1.40;99.90
34768;DHT22;21755;43.608;1.236;2023-01-26T00:31:25;1.40;99.90
34768;DHT22;21755;43.608;1.236;2023-01-26T00:33:53;1.40;99.90
34768;DHT22;21755;43.608;1.236;2023-01-26T00:36:20;1.40;99.90
34768;DHT22;21755;43.608;1.236;2023-01-26T00:38:46;1.40;99.90
34768;DHT22;21755;43.608;1.236;2023-01-26T00:41:12;1.40;99.90
34768;DHT22;21755;43.608;1.236;2023-01-26T00:43:58;1.40;99.90
34768;DHT22;21755;43.608;1.236;2023-01-26T00:46:24;1.30;99.90
34768;DHT22;21755;43.608;1.236;2023-01-26T00:48:50;1.40;99.90
34768;DHT22;21755;43.608;1.236;2023-01-26T00:51:16;1.40;99.90
34768;DHT22;21755;43.608;1.236;2023-01-26T00:53:41;1.40;99.90
34768;DHT22;21755;43.608;1.236;2023-01-26T00:56:07;1.40;99.90
34768;DHT22;21755;43.608;1.236;2023-01-26T00:58:33;1.40;99.90
34768;DHT22;21755;43.608;1.236;2023-01-26T01:00:59;1.40;99.90
34768;DHT22;21755;43.608;1.236;2023-01-26T01:03:25;1.40;99.90
34768;DHT22;21755;43.608;1.236;2023-01-26T01:05:51;1.40;99.90
34768;DHT22;21755;43.608;1.236;2023-01-26T01:08:17;1.40;99.90
34768;DHT22;21755;43.608;1.236;2023-01-26T01:10:42;1.40;99.90
34768;DHT22;21755;43.608;1.236;2023-01-26T01:13:08;1.40;99.90
34768;DHT22;21755;43.608;1.236;2023-01-26T01:15:36;1.40;99.90
34768;DHT22;21755;43.608;1.236;2023-01-26T01:18:02;1.40;99.90
34768;DHT22;21755;43.608;1.236;2023-01-26T01:20:28;1.40;99.90
34768;DHT22;21755;43.608;1.236;2023-01-26T01:22:54;1.40;99.90
34768;DHT22;21755;43.608;1.236;2023-01-26T01:25:20;1.40;99.90
34768;DHT22;21755;43.608;1.236;2023-01-26T01:27:46;1.40;99.90
34768;DHT22;21755;43.608;1.236;2023-01-26T01:30:12;1.40;99.90
34768;DHT22;21755;43.608;1.236;2023-01-26T01:32:38;1.40;99.90
34768;DHT22;21755;43.608;1.236;2023-01-26T01:35:07;1.40;99.90
34768;DHT22;21755;43.608;1.236;2023-01-26T01:37:33;1.50;99.90
34768;DHT22;21755;43.608;1.236;2023-01-26T01:40:01;1.50;99.90
34768;DHT22;21755;43.608;1.236;2023-01-26T01:42:27;1.50;99.90
34768;DHT22;21755;43.608;1.236;2023-01-26T01:47:58;1.40;99.90
34768;DHT22;21755;43.608;1.236;2023-01-26T01:50:26;1.40;99.90
34768;DHT22;21755;43.608;1.236;2023-01-26T01:52:54;1.40;99.90
34768;DHT22;21755;43.608;1.236;2023-01-26T01:55:20;1.40;99.90
34768;DHT22;21755;43.608;1.236;2023-01-26T01:57:54;1.40;99.90
34768;DHT22;21755;43.608;1.236;2023-01-26T02:00:21;1.40;99.90
34768;DHT22;21755;43.608;1.236;2023-01-26T02:02:52;1.50;99.90
34768;DHT22;21755;43.608;1.236;2023-01-26T02:08:26;1.50;99.90
34768;DHT22;21755;43.608;1.236;2023-01-26T02:10:55;1.50;99.90
34768;DHT22;21755;43.608;1.236;2023-01-26T02:13:23;1.50;99.90
34768;DHT22;21755;43.608;1.236;2023-01-26T02:15:50;1.50;99.90
34768;DHT22;21755;43.608;1.236;2023-01-26T02:18:17;1.50;99.90
34768;DHT22;21755;43.608;1.236;2023-01-26T02:20:49;1.50;99.90
34768;DHT22;21755;43.608;1.236;2023-01-26T02:23:24;1.50;99.90
34768;DHT22;21755;43.608;1.236;2023-01-26T02:28:21;1.50;99.90
34768;DHT22;21755;43.608;1.236;2023-01-26T02:30:48;1.50;99.90
34768;DHT22;21755;43.608;1.236;2023-01-26T02:33:18;1.50;99.90
34768;DHT22;21755;43.608;1.236;2023-01-26T02:35:44;1.50;99.90
34768;DHT22;21755;43.608;1.236;2023-01-26T02:38:10;1.50;99.90
34768;DHT22;21755;43.608;1.236;2023-01-26T02:43:13;1.50;99.90
34768;DHT22;21755;43.608;1.236;2023-01-26T02:45:40;1.50;99.90
34768;DHT22;21755;43.608;1.236;2023-01-26T02:48:06;1.50;99.90
34768;DHT22;21755;43.608;1.236;2023-01-26T02:50:33;1.50;99.90
34768;DHT22;21755;43.608;1.236;2023-01-26T02:53:02;1.50;99.90
34768;DHT22;21755;43.608;1.236;2023-01-26T02:55:28;1.50;99.90
34768;DHT22;21755;43.608;1.236;2023-01-26T02:57:59;1.50;99.90
34768;DHT22;21755;43.608;1.236;2023-01-26T03:00:28;1.50;99.90
34768;DHT22;21755;43.608;1.236;2023-01-26T03:02:57;1.50;99.90
34768;DHT22;21755;43.608;1.236;2023-01-26T03:05:24;1.50;99.90
34768;DHT22;21755;43.608;1.236;2023-01-26T03:07:50;1.50;99.90
34768;DHT22;21755;43.608;1.236;2023-01-26T03:10:16;1.50;99.90
34768;DHT22;21755;43.608;1.236;2023-01-26T03:12:43;1.50;99.90
34768;DHT22;21755;43.608;1.236;2023-01-26T03:15:10;1.50;99.90
34768;DHT22;21755;43.608;1.236;2023-01-26T03:18:07;1.50;99.90
34768;DHT22;21755;43.608;1.236;2023-01-26T03:20:52;1.50;99.90
34768;DHT22;21755;43.608;1.236;2023-01-26T03:23:36;1.60;99.90
34768;DHT22;21755;43.608;1.236;2023-01-26T03:26:20;1.50;99.90
34768;DHT22;21755;43.608;1.236;2023-01-26T03:29:05;1.50;99.90
34768;DHT22;21755;43.608;1.236;2023-01-26T03:31:31;1.50;99.90
34768;DHT22;21755;43.608;1.236;2023-01-26T03:33:57;1.50;99.90
34768;DHT22;21755;43.608;1.236;2023-01-26T03:36:23;1.50;99.90
34768;DHT22;21755;43.608;1.236;2023-01-26T03:38:48;1.50;99.90
34768;DHT22;21755;43.608;1.236;2023-01-26T03:41:14;1.50;99.90
34768;DHT22;21755;43.608;1.236;2023-01-26T03:43:59;1.60;99.90
34768;DHT22;21755;43.608;1.236;2023-01-26T03:46:43;1.60;99.90
34768;DHT22;21755;43.608;1.236;2023-01-26T03:49:27;1.60;99.90
34768;DHT22;21755;43.608;1.236;2023-01-26T03:52:11;1.60;99.90
34768;DHT22;21755;43.608;1.236;2023-01-26T03:54:55;1.60;99.90
34768;DHT22;21755;43.608;1.236;2023-01-26T03:57:39;1.60;99.90
34768;DHT22;21755;43.608;1.236;2023-01-26T04:00:05;1.60;99.90
34768;DHT22;21755;43.608;1.236;2023-01-26T04:02:31;1.60;99.90
34768;DHT22;21755;43.608;1.236;2023-01-26T04:05:15;1.60;99.90
34768;DHT22;21755;43.608;1.236;2023-01-26T04:08:04;1.60;99.90
34768;DHT22;21755;43.608;1.236;2023-01-26T04:10:46;1.60;99.90
34768;DHT22;21755;43.608;1.236;2023-01-26T04:13:12;1.60;99.90
34768;DHT22;21755;43.608;1.236;2023-01-26T04:15:56;1.60;99.90
34768;DHT22;21755;43.608;1.236;2023-01-26T04:18:40;1.60;99.90
34768;DHT22;21755;43.608;1.236;2023-01-26T04:21:24;1.70;99.90
34768;DHT22;21755;43.608;1.236;2023-01-26T04:23:58;1.60;99.90
34768;DHT22;21755;43.608;1.236;2023-01-26T04:26:30;1.60;99.90
34768;DHT22;21755;43.608;1.236;2023-01-26T04:29:25;1.60;99.90
34768;DHT22;21755;43.608;1.236;2023-01-26T04:31:51;1.70;99.90
34768;DHT22;21755;43.608;1.236;2023-01-26T04:34:17;1.70;99.90
34768;DHT22;21755;43.608;1.236;2023-01-26T04:36:43;1.70;99.90
34768;DHT22;21755;43.608;1.236;2023-01-26T04:39:09;1.70;99.90
34768;DHT22;21755;43.608;1.236;2023-01-26T04:41:35;1.70;99.90
34768;DHT22;21755;43.608;1.236;2023-01-26T04:44:01;1.70;99.90
34768;DHT22;21755;43.608;1.236;2023-01-26T04:46:27;1.70;99.90
34768;DHT22;21755;43.608;1.236;2023-01-26T04:48:53;1.60;99.90
34768;DHT22;21755;43.608;1.236;2023-01-26T04:51:20;1.60;99.90
34768;DHT22;21755;43.608;1.236;2023-01-26T04:53:47;1.60;99.90
34768;DHT22;21755;43.608;1.236;2023-01-26T04:56:30;1.60;99.90
34768;DHT22;21755;43.608;1.236;2023-01-26T04:58:58;1.70;99.90
34768;DHT22;21755;43.608;1.236;2023-01-26T05:01:24;1.60;99.90
34768;DHT22;21755;43.608;1.236;2023-01-26T05:03:50;1.60;99.90
34768;DHT22;21755;43.608;1.236;2023-01-26T05:06:17;1.60;99.90
34768;DHT22;21755;43.608;1.236;2023-01-26T05:08:43;1.50;99.90
34768;DHT22;21755;43.608;1.236;2023-01-26T05:11:09;1.50;99.90
34768;DHT22;21755;43.608;1.236;2023-01-26T05:13:35;1.50;99.90
34768;DHT22;21755;43.608;1.236;2023-01-26T05:16:03;1.50;99.90
34768;DHT22;21755;43.608;1.236;2023-01-26T05:18:29;1.50;99.90
34768;DHT22;21755;43.608;1.236;2023-01-26T05:20:55;1.60;99.90
34768;DHT22;21755;43.608;1.236;2023-01-26T05:23:21;1.60;99.90
34768;DHT22;21755;43.608;1.236;2023-01-26T05:25:47;1.50;99.90
34768;DHT22;21755;43.608;1.236;2023-01-26T05:28:13;1.50;99.90
34768;DHT22;21755;43.608;1.236;2023-01-26T05:30:39;1.60;99.90
34768;DHT22;21755;43.608;1.236;2023-01-26T05:33:07;1.50;99.90
34768;DHT22;21755;43.608;1.236;2023-01-26T05:35:34;1.50;99.90
34768;DHT22;21755;43.608;1.236;2023-01-26T05:38:01;1.50;99.90
34768;DHT22;21755;43.608;1.236;2023-01-26T05:40:27;1.60;99.90
34768;DHT22;21755;43.608;1.236;2023-01-26T05:42:54;1.60;99.90
34768;DHT22;21755;43.608;1.236;2023-01-26T05:45:20;1.60;99.90
34768;DHT22;21755;43.608;1.236;2023-01-26T05:47:46;1.60;99.90
34768;DHT22;21755;43.608;1.236;2023-01-26T05:50:14;1.60;99.90
34768;DHT22;21755;43.608;1.236;2023-01-26T05:52:41;1.60;99.90
34768;DHT22;21755;43.608;1.236;2023-01-26T05:55:07;1.60;99.90
34768;DHT22;21755;43.608;1.236;2023-01-26T05:57:33;1.50;99.90
34768;DHT22;21755;43.608;1.236;2023-01-26T05:59:59;1.60;99.90
34768;DHT22;21755;43.608;1.236;2023-01-26T06:02:25;1.60;99.90
34768;DHT22;21755;43.608;1.236;2023-01-26T06:04:54;1.60;99.90
34768;DHT22;21755;43.608;1.236;2023-01-26T06:07:20;1.60;99.90
34768;DHT22;21755;43.608;1.236;2023-01-26T06:09:46;1.60;99.90
34768;DHT22;21755;43.608;1.236;2023-01-26T06:12:15;1.60;99.90
34768;DHT22;21755;43.608;1.236;2023-01-26T06:14:41;1.60;99.90
34768;DHT22;21755;43.608;1.236;2023-01-26T06:17:07;1.60;99.90
34768;DHT22;21755;43.608;1.236;2023-01-26T06:19:33;1.60;99.90
34768;DHT22;21755;43.608;1.236;2023-01-26T06:22:00;1.60;99.90
34768;DHT22;21755;43.608;1.236;2023-01-26T06:24:26;1.60;99.90
34768;DHT22;21755;43.608;1.236;2023-01-26T06:26:52;1.50;99.90
34768;DHT22;21755;43.608;1.236;2023-01-26T06:29:18;1.50;99.90
34768;DHT22;21755;43.608;1.236;2023-01-26T06:31:44;1.50;99.90
34768;DHT22;21755;43.608;1.236;2023-01-26T06:34:10;1.40;99.90
34768;DHT22;21755;43.608;1.236;2023-01-26T06:36:36;1.50;99.90
34768;DHT22;21755;43.608;1.236;2023-01-26T06:39:02;1.50;99.90
34768;DHT22;21755;43.608;1.236;2023-01-26T06:41:29;1.50;99.90
34768;DHT22;21755;43.608;1.236;2023-01-26T06:43:55;1.50;99.90
34768;DHT22;21755;43.608;1.236;2023-01-26T06:46:21;1.60;99.90
34768;DHT22;21755;43.608;1.236;2023-01-26T06:48:52;1.60;99.90
34768;DHT22;21755;43.608;1.236;2023-01-26T06:53:55;1.60;99.90
34768;DHT22;21755;43.608;1.236;2023-01-26T06:56:23;1.60;99.90
34768;DHT22;21755;43.608;1.236;2023-01-26T06:58:50;1.60;99.90
34768;DHT22;21755;43.608;1.236;2023-01-26T07:01:18;1.70;99.90
34768;DHT22;21755;43.608;1.236;2023-01-26T07:03:44;1.60;99.90
34768;DHT22;21755;43.608;1.236;2023-01-26T07:06:12;1.70;99.90
34768;DHT22;21755;43.608;1.236;2023-01-26T07:08:38;1.70;99.90
34768;DHT22;21755;43.608;1.236;2023-01-26T07:11:06;1.70;99.90
34768;DHT22;21755;43.608;1.236;2023-01-26T07:13:32;1.70;99.90
34768;DHT22;21755;43.608;1.236;2023-01-26T07:16:02;1.70;99.90
34768;DHT22;21755;43.608;1.236;2023-01-26T07:18:29;1.60;99.90
34768;DHT22;21755;43.608;1.236;2023-01-26T07:21:01;1.60;99.90
34768;DHT22;21755;43.608;1.236;2023-01-26T07:23:27;1.50;99.90
34768;DHT22;21755;43.608;1.236;2023-01-26T07:25:53;1.50;99.90
34768;DHT22;21755;43.608;1.236;2023-01-26T07:28:19;1.50;99.90
34768;DHT22;21755;43.608;1.236;2023-01-26T07:30:45;1.50;99.90
34768;DHT22;21755;43.608;1.236;2023-01-26T07:33:13;1.50;99.90
34768;DHT22;21755;43.608;1.236;2023-01-26T07:35:39;1.50;99.90
34768;DHT22;21755;43.608;1.236;2023-01-26T07:38:05;1.50;99.90
34768;DHT22;21755;43.608;1.236;2023-01-26T07:40:31;1.50;99.90
34768;DHT22;21755;43.608;1.236;2023-01-26T07:42:58;1.60;99.90
34768;DHT22;21755;43.608;1.236;2023-01-26T07:45:25;1.60;99.90
34768;DHT22;21755;43.608;1.236;2023-01-26T07:47:55;1.60;99.90
34768;DHT22;21755;43.608;1.236;2023-01-26T07:50:21;1.60;99.90
34768;DHT22;21755;43.608;1.236;2023-01-26T07:52:49;1.60;99.90
34768;DHT22;21755;43.608;1.236;2023-01-26T07:55:17;1.60;99.90
34768;DHT22;21755;43.608;1.236;2023-01-26T07:57:47;1.70;99.90
34768;DHT22;21755;43.608;1.236;2023-01-26T08:00:14;1.70;99.90
34768;DHT22;21755;43.608;1.236;2023-01-26T08:02:42;1.70;99.90
34768;DHT22;21755;43.608;1.236;2023-01-26T08:05:08;1.70;99.90
34768;DHT22;21755;43.608;1.236;2023-01-26T08:07:34;1.70;99.90
34768;DHT22;21755;43.608;1.236;2023-01-26T08:10:00;1.70;99.90
34768;DHT22;21755;43.608;1.236;2023-01-26T08:12:27;1.70;99.90
34768;DHT22;21755;43.608;1.236;2023-01-26T08:14:53;1.70;99.90
34768;DHT22;21755;43.608;1.236;2023-01-26T08:17:19;1.70;99.90
34768;DHT22;21755;43.608;1.236;2023-01-26T08:19:45;1.70;99.90
34768;DHT22;21755;43.608;1.236;2023-01-26T08:22:11;1.80;99.90
34768;DHT22;21755;43.608;1.236;2023-01-26T08:24:37;2.10;99.90
34768;DHT22;21755;43.608;1.236;2023-01-26T08:27:03;1.90;99.90
34768;DHT22;21755;43.608;1.236;2023-01-26T08:29:29;1.80;99.90
34768;DHT22;21755;43.608;1.236;2023-01-26T08:31:55;1.80;99.90
34768;DHT22;21755;43.608;1.236;2023-01-26T08:34:21;1.80;99.90
34768;DHT22;21755;43.608;1.236;2023-01-26T08:36:47;1.80;99.90
34768;DHT22;21755;43.608;1.236;2023-01-26T08:39:13;1.80;99.90
34768;DHT22;21755;43.608;1.236;2023-01-26T08:41:39;1.80;99.90
34768;DHT22;21755;43.608;1.236;2023-01-26T08:44:06;1.80;99.90
34768;DHT22;21755;43.608;1.236;2023-01-26T08:46:32;1.80;99.90
34768;DHT22;21755;43.608;1.236;2023-01-26T08:48:58;1.80;99.90
34768;DHT22;21755;43.608;1.236;2023-01-26T08:51:23;1.80;99.90
34768;DHT22;21755;43.608;1.236;2023-01-26T08:53:49;1.80;99.90
34768;DHT22;21755;43.608;1.236;2023-01-26T08:56:16;1.80;99.90
34768;DHT22;21755;43.608;1.236;2023-01-26T08:58:44;1.80;99.90
34768;DHT22;21755;43.608;1.236;2023-01-26T09:01:15;1.90;99.90
34768;DHT22;21755;43.608;1.236;2023-01-26T09:03:41;1.90;99.90
34768;DHT22;21755;43.608;1.236;2023-01-26T09:06:09;1.90;99.90
34768;DHT22;21755;43.608;1.236;2023-01-26T09:08:35;1.90;99.90
34768;DHT22;21755;43.608;1.236;2023-01-26T09:11:04;1.90;99.90
34768;DHT22;21755;43.608;1.236;2023-01-26T09:13:30;1.90;99.90
34768;DHT22;21755;43.608;1.236;2023-01-26T09:15:56;2.00;99.90
34768;DHT22;21755;43.608;1.236;2023-01-26T09:18:22;2.00;99.90
34768;DHT22;21755;43.608;1.236;2023-01-26T09:20:48;1.90;99.90
34768;DHT22;21755;43.608;1.236;2023-01-26T09:23:16;2.00;99.90
34768;DHT22;21755;43.608;1.236;2023-01-26T09:25:43;2.00;99.90
34768;DHT22;21755;43.608;1.236;2023-01-26T09:28:11;2.00;99.90
34768;DHT22;21755;43.608;1.236;2023-01-26T09:30:37;2.00;99.90
34768;DHT22;21755;43.608;1.236;2023-01-26T09:33:03;2.00;99.90
34768;DHT22;21755;43.608;1.236;2023-01-26T09:35:31;2.00;99.90
34768;DHT22;21755;43.608;1.236;2023-01-26T09:37:57;2.10;99.90
34768;DHT22;21755;43.608;1.236;2023-01-26T09:40:49;2.10;99.90
34768;DHT22;21755;43.608;1.236;2023-01-26T09:43:44;2.20;99.90
34768;DHT22;21755;43.608;1.236;2023-01-26T09:52:00;2.30;99.90
34768;DHT22;21755;43.608;1.236;2023-01-26T09:54:38;2.20;99.90
34768;DHT22;21755;43.608;1.236;2023-01-26T09:57:15;2.20;99.90
34768;DHT22;21755;43.608;1.236;2023-01-26T09:59:46;2.30;99.90
34768;DHT22;21755;43.608;1.236;2023-01-26T10:02:41;2.20;99.90
34768;DHT22;21755;43.608;1.236;2023-01-26T10:07:54;2.30;99.90
34768;DHT22;21755;43.608;1.236;2023-01-26T10:10:35;2.40;99.90
34768;DHT22;21755;43.608;1.236;2023-01-26T10:13:03;2.30;99.90
34768;DHT22;21755;43.608;1.236;2023-01-26T10:15:34;2.30;99.90
34768;DHT22;21755;43.608;1.236;2023-01-26T10:18:18;2.30;99.90
34768;DHT22;21755;43.608;1.236;2023-01-26T10:20:52;2.30;99.90
34768;DHT22;21755;43.608;1.236;2023-01-26T10:23:28;2.40;99.90
34768;DHT22;21755;43.608;1.236;2023-01-26T10:26:12;2.30;99.90
34768;DHT22;21755;43.608;1.236;2023-01-26T10:28:41;2.30;99.90
34768;DHT22;21755;43.608;1.236;2023-01-26T10:31:22;2.30;99.90
34768;DHT22;21755;43.608;1.236;2023-01-26T10:36:18;2.30;99.90
34768;DHT22;21755;43.608;1.236;2023-01-26T10:38:45;2.30;99.90
34768;DHT22;21755;43.608;1.236;2023-01-26T10:43:58;2.30;99.90
34768;DHT22;21755;43.608;1.236;2023-01-26T10:49:17;2.20;99.90
34768;DHT22;21755;43.608;1.236;2023-01-26T10:51:46;2.30;99.90
34768;DHT22;21755;43.608;1.236;2023-01-26T10:54:32;2.30;99.90
34768;DHT22;21755;43.608;1.236;2023-01-26T10:57:03;2.30;99.90
34768;DHT22;21755;43.608;1.236;2023-01-26T11:05:14;2.70;99.90
34768;DHT22;21755;43.608;1.236;2023-01-26T11:07:45;2.70;99.90
34768;DHT22;21755;43.608;1.236;2023-01-26T11:13:16;2.80;99.90
34768;DHT22;21755;43.608;1.236;2023-01-26T11:15:49;2.90;99.90
34768;DHT22;21755;43.608;1.236;2023-01-26T11:18:21;3.00;99.90
34768;DHT22;21755;43.608;1.236;2023-01-26T11:20:59;3.00;99.90
34768;DHT22;21755;43.608;1.236;2023-01-26T11:32:32;3.00;99.90
34768;DHT22;21755;43.608;1.236;2023-01-26T11:35:08;3.10;99.90
34768;DHT22;21755;43.608;1.236;2023-01-26T11:38:23;3.10;99.90
34768;DHT22;21755;43.608;1.236;2023-01-26T11:46:05;3.20;99.90
34768;DHT22;21755;43.608;1.236;2023-01-26T11:48:54;3.20;99.90
34768;DHT22;21755;43.608;1.236;2023-01-26T11:57:05;3.30;99.90
34768;DHT22;21755;43.608;1.236;2023-01-26T12:04:47;3.40;99.90
34768;DHT22;21755;43.608;1.236;2023-01-26T12:07:20;3.30;99.90
34768;DHT22;21755;43.608;1.236;2023-01-26T12:09:48;3.50;99.90
34768;DHT22;21755;43.608;1.236;2023-01-26T12:24:00;3.60;99.90
34768;DHT22;21755;43.608;1.236;2023-01-26T12:26:31;3.80;99.90
34768;DHT22;21755;43.608;1.236;2023-01-26T12:29:29;3.70;99.90
34768;DHT22;21755;43.608;1.236;2023-01-26T12:32:09;3.70;99.90
34768;DHT22;21755;43.608;1.236;2023-01-26T12:34:35;3.60;99.90
34768;DHT22;21755;43.608;1.236;2023-01-26T12:40:12;3.60;99.90
34768;DHT22;21755;43.608;1.236;2023-01-26T12:45:16;3.60;99.90
34768;DHT22;21755;43.608;1.236;2023-01-26T12:48:29;3.50;99.90
34768;DHT22;21755;43.608;1.236;2023-01-26T12:50:55;3.50;99.90
34768;DHT22;21755;43.608;1.236;2023-01-26T12:53:29;3.60;99.90
34768;DHT22;21755;43.608;1.236;2023-01-26T12:56:23;3.70;99.90
34768;DHT22;21755;43.608;1.236;2023-01-26T12:58:52;3.70;99.90
34768;DHT22;21755;43.608;1.236;2023-01-26T13:01:20;3.60;99.90
34768;DHT22;21755;43.608;1.236;2023-01-26T13:03:58;3.50;99.90
34768;DHT22;21755;43.608;1.236;2023-01-26T13:06:26;3.50;99.90
34768;DHT22;21755;43.608;1.236;2023-01-26T13:09:17;3.50;99.90
34768;DHT22;21755;43.608;1.236;2023-01-26T13:11:45;3.60;99.90
34768;DHT22;21755;43.608;1.236;2023-01-26T13:14:37;3.60;99.90
34768;DHT22;21755;43.608;1.236;2023-01-26T13:27:44;3.60;99.90
34768;DHT22;21755;43.608;1.236;2023-01-26T13:35:21;3.60;99.90
34768;DHT22;21755;43.608;1.236;2023-01-26T13:40:48;3.60;99.90
34768;DHT22;21755;43.608;1.236;2023-01-26T13:46:25;3.70;99.90
34768;DHT22;21755;43.608;1.236;2023-01-26T13:48:55;3.70;99.90
34768;DHT22;21755;43.608;1.236;2023-01-26T13:51:29;3.80;99.90
34768;DHT22;21755;43.608;1.236;2023-01-26T13:54:11;3.70;99.90
34768;DHT22;21755;43.608;1.236;2023-01-26T13:56:39;3.80;99.90
34768;DHT22;21755;43.608;1.236;2023-01-26T13:59:14;3.80;99.90
34768;DHT22;21755;43.608;1.236;2023-01-26T14:04:32;3.80;99.90
34768;DHT22;21755;43.608;1.236;2023-01-26T14:07:09;3.80;99.90
34768;DHT22;21755;43.608;1.236;2023-01-26T14:09:51;3.60;99.90
34768;DHT22;21755;43.608;1.236;2023-01-26T14:12:22;3.70;99.90
34768;DHT22;21755;43.608;1.236;2023-01-26T14:14:58;3.60;99.90
34768;DHT22;21755;43.608;1.236;2023-01-26T14:19:57;3.70;99.90
34768;DHT22;21755;43.608;1.236;2023-01-26T14:22:25;3.70;99.90
34768;DHT22;21755;43.608;1.236;2023-01-26T14:24:52;3.70;99.90
34768;DHT22;21755;43.608;1.236;2023-01-26T14:27:29;3.70;99.90
34768;DHT22;21755;43.608;1.236;2023-01-26T14:29:56;3.80;99.90
34768;DHT22;21755;43.608;1.236;2023-01-26T14:32:23;3.80;99.90
34768;DHT22;21755;43.608;1.236;2023-01-26T14:34:55;3.70;99.90
34768;DHT22;21755;43.608;1.236;2023-01-26T14:37:21;3.80;99.90
34768;DHT22;21755;43.608;1.236;2023-01-26T14:39:49;3.70;99.90
34768;DHT22;21755;43.608;1.236;2023-01-26T14:42:33;3.70;99.90
34768;DHT22;21755;43.608;1.236;2023-01-26T14:45:00;3.60;99.90
34768;DHT22;21755;43.608;1.236;2023-01-26T14:47:31;3.70;99.90
34768;DHT22;21755;43.608;1.236;2023-01-26T14:50:03;3.70;99.90
34768;DHT22;21755;43.608;1.236;2023-01-26T14:52:35;3.70;99.90
34768;DHT22;21755;43.608;1.236;2023-01-26T14:55:47;3.60;99.90
34768;DHT22;21755;43.608;1.236;2023-01-26T14:58:31;3.60;99.90
34768;DHT22;21755;43.608;1.236;2023-01-26T15:00:59;3.60;99.90
34768;DHT22;21755;43.608;1.236;2023-01-26T15:03:32;3.50;99.90
34768;DHT22;21755;43.608;1.236;2023-01-26T15:08:40;3.50;99.90
34768;DHT22;21755;43.608;1.236;2023-01-26T15:11:08;3.60;99.90
34768;DHT22;21755;43.608;1.236;2023-01-26T15:13:54;3.60;99.90
34768;DHT22;21755;43.608;1.236;2023-01-26T15:16:22;3.60;99.90
34768;DHT22;21755;43.608;1.236;2023-01-26T15:19:03;3.60;99.90
34768;DHT22;21755;43.608;1.236;2023-01-26T15:21:35;3.60;99.90
34768;DHT22;21755;43.608;1.236;2023-01-26T15:24:05;3.50;99.90
34768;DHT22;21755;43.608;1.236;2023-01-26T15:26:35;3.50;99.90
34768;DHT22;21755;43.608;1.236;2023-01-26T15:29:05;3.50;99.90
34768;DHT22;21755;43.608;1.236;2023-01-26T15:31:37;3.40;99.90
34768;DHT22;21755;43.608;1.236;2023-01-26T15:34:05;3.50;99.90
34768;DHT22;21755;43.608;1.236;2023-01-26T15:36:32;3.50;99.90
34768;DHT22;21755;43.608;1.236;2023-01-26T15:39:11;3.50;99.90
34768;DHT22;21755;43.608;1.236;2023-01-26T15:44:42;3.50;99.90
34768;DHT22;21755;43.608;1.236;2023-01-26T15:47:09;3.40;99.90
34768;DHT22;21755;43.608;1.236;2023-01-26T15:49:36;3.40;99.90
34768;DHT22;21755;43.608;1.236;2023-01-26T15:52:08;3.30;99.90
34768;DHT22;21755;43.608;1.236;2023-01-26T15:54:36;3.30;99.90
34768;DHT22;21755;43.608;1.236;2023-01-26T15:57:02;3.30;99.90
34768;DHT22;21755;43.608;1.236;2023-01-26T15:59:28;3.30;99.90
34768;DHT22;21755;43.608;1.236;2023-01-26T16:01:55;3.20;99.90
34768;DHT22;21755;43.608;1.236;2023-01-26T16:04:20;3.20;99.90
34768;DHT22;21755;43.608;1.236;2023-01-26T16:06:47;3.20;99.90
34768;DHT22;21755;43.608;1.236;2023-01-26T16:09:13;3.20;99.90
34768;DHT22;21755;43.608;1.236;2023-01-26T16:11:45;3.20;99.90
34768;DHT22;21755;43.608;1.236;2023-01-26T16:14:12;3.20;99.90
34768;DHT22;21755;43.608;1.236;2023-01-26T16:16:39;3.10;99.90
34768;DHT22;21755;43.608;1.236;2023-01-26T16:19:05;3.10;99.90
34768;DHT22;21755;43.608;1.236;2023-01-26T16:21:34;3.10;99.90
34768;DHT22;21755;43.608;1.236;2023-01-26T16:24:01;3.10;99.90
34768;DHT22;21755;43.608;1.236;2023-01-26T16:26:28;3.10;99.90
34768;DHT22;21755;43.608;1.236;2023-01-26T16:28:54;3.10;99.90
34768;DHT22;21755;43.608;1.236;2023-01-26T16:31:30;3.10;99.90
34768;DHT22;21755;43.608;1.236;2023-01-26T16:33:56;3.10;99.90
34768;DHT22;21755;43.608;1.236;2023-01-26T16:36:23;3.00;99.90
34768;DHT22;21755;43.608;1.236;2023-01-26T16:38:49;3.00;99.90
34768;DHT22;21755;43.608;1.236;2023-01-26T16:41:27;2.90;99.90
34768;DHT22;21755;43.608;1.236;2023-01-26T16:43:54;2.90;99.90
34768;DHT22;21755;43.608;1.236;2023-01-26T16:46:21;2.90;99.90
34768;DHT22;21755;43.608;1.236;2023-01-26T16:48:47;2.80;99.90
34768;DHT22;21755;43.608;1.236;2023-01-26T16:51:39;2.80;99.90
34768;DHT22;21755;43.608;1.236;2023-01-26T16:54:06;2.80;99.90
34768;DHT22;21755;43.608;1.236;2023-01-26T16:56:33;2.80;99.90
34768;DHT22;21755;43.608;1.236;2023-01-26T16:58:59;2.80;99.90
34768;DHT22;21755;43.608;1.236;2023-01-26T17:01:34;2.80;99.90
34768;DHT22;21755;43.608;1.236;2023-01-26T17:04:00;2.70;99.90
34768;DHT22;21755;43.608;1.236;2023-01-26T17:06:27;2.70;99.90
34768;DHT22;21755;43.608;1.236;2023-01-26T17:08:53;2.60;99.90
34768;DHT22;21755;43.608;1.236;2023-01-26T17:11:22;2.60;99.90
34768;DHT22;21755;43.608;1.236;2023-01-26T17:13:48;2.60;99.90
34768;DHT22;21755;43.608;1.236;2023-01-26T17:16:18;2.50;99.90
34768;DHT22;21755;43.608;1.236;2023-01-26T17:18:44;2.50;99.90
34768;DHT22;21755;43.608;1.236;2023-01-26T17:21:12;2.40;99.90
34768;DHT22;21755;43.608;1.236;2023-01-26T17:23:38;2.40;99.90
34768;DHT22;21755;43.608;1.236;2023-01-26T17:26:10;2.40;99.90
34768;DHT22;21755;43.608;1.236;2023-01-26T17:28:36;2.40;99.90
34768;DHT22;21755;43.608;1.236;2023-01-26T17:31:14;2.40;99.90
34768;DHT22;21755;43.608;1.236;2023-01-26T17:33:47;2.30;99.90
34768;DHT22;21755;43.608;1.236;2023-01-26T17:36:14;2.30;99.90
34768;DHT22;21755;43.608;1.236;2023-01-26T17:38:41;2.30;99.90
34768;DHT22;21755;43.608;1.236;2023-01-26T17:41:07;2.30;99.90
34768;DHT22;21755;43.608;1.236;2023-01-26T17:43:33;2.30;99.90
34768;DHT22;21755;43.608;1.236;2023-01-26T17:46:07;2.20;99.90
34768;DHT22;21755;43.608;1.236;2023-01-26T17:48:35;2.20;99.90
34768;DHT22;21755;43.608;1.236;2023-01-26T17:51:09;2.20;99.90
34768;DHT22;21755;43.608;1.236;2023-01-26T17:53:40;2.20;99.90
34768;DHT22;21755;43.608;1.236;2023-01-26T17:56:07;2.20;99.90
34768;DHT22;21755;43.608;1.236;2023-01-26T17:58:34;2.20;99.90